Henderson, Maryland
Current Conditions -  °F | °C
As of 4:21 AM on Wednesday 22 Oct 2014 (Local Time) from KDOV Reporting Station
Overcast Overcast  
Wind Chill: 55°   Ceiling: 1300
Heat Index: 55°   Visibility: 10mi
Dew Point: 55°   Wind: 8mph
Humidity: 100%   Direction: 300°WNW
Pressure: 29.79"   Gusts: NA
Location:  39.07°N, 75.77°W
Report Text: KDOV 220821Z AUTO 30007KT 10SM SCT006 BKN013 OVC060 13/13 A2979 RMK AO2 CIG 011V060 $
Loading
Personal Weather Stations






























Interactive Weather Map
Tropical Storm Tracking
New forecast layout! Learn more

10-Day Weather Forecast

Advertisements
Track Severe Weather on mobile